Time;durP1;ratioP1;P1;durP2;ratioP2;P2;SDS_P1;SDS_P2;PMS_P1;PMS_P2;Temp;Humidity;BMP_temperature;BMP_pressure;BME280_temperature;BME280_humidity;BME280_pressure;Samples;Min_cycle;Max_cycle;Signal;HPM_P1;HPM_P2
2023/06/15 00:00:48;;;;;;;4.93;2.22;;;12.70;97.40;;;;;;4940058;28;20055;-63
2023/06/15 00:03:16;;;;;;;3.00;2.40;;;12.70;97.40;;;;;;4942634;28;20059;-63
2023/06/15 00:05:43;;;;;;;3.17;2.72;;;12.70;97.50;;;;;;4940573;28;20690;-63
2023/06/15 00:08:10;;;;;;;3.53;2.63;;;12.70;97.70;;;;;;4940958;28;20089;-64
2023/06/15 00:10:37;;;;;;;2.90;2.30;;;12.70;97.80;;;;;;4937470;28;20521;-64
2023/06/15 00:13:04;;;;;;;5.45;3.08;;;12.70;98.00;;;;;;4941031;28;20058;-63
2023/06/15 00:15:31;;;;;;;3.95;2.92;;;12.70;98.20;;;;;;4937418;28;20052;-63
2023/06/15 00:17:58;;;;;;;3.33;2.97;;;12.60;98.00;;;;;;4939371;28;20055;-63
2023/06/15 00:20:28;;;;;;;3.58;2.80;;;12.60;98.40;;;;;;4943312;28;20047;-62
2023/06/15 00:22:56;;;;;;;4.18;2.45;;;12.60;98.60;;;;;;4939259;28;20039;-67
2023/06/15 00:25:23;;;;;;;4.03;2.53;;;12.60;99.00;;;;;;4931837;28;20047;-63
2023/06/15 00:27:50;;;;;;;4.55;3.08;;;12.50;98.90;;;;;;4941779;28;20043;-65
2023/06/15 00:30:20;;;;;;;5.88;3.35;;;12.50;99.20;;;;;;4939396;28;20043;-63
2023/06/15 00:32:46;;;;;;;3.28;2.25;;;12.40;99.40;;;;;;4936945;28;20042;-63
2023/06/15 00:35:13;;;;;;;5.35;3.08;;;12.40;99.80;;;;;;4930391;28;20063;-65
2023/06/15 00:37:41;;;;;;;6.30;2.70;;;12.40;99.80;;;;;;4939596;28;20063;-63
2023/06/15 00:40:09;;;;;;;3.38;2.95;;;12.40;99.90;;;;;;4940123;28;20043;-63
2023/06/15 00:42:36;;;;;;;4.53;2.78;;;12.40;99.90;;;;;;4936119;28;20048;-65
2023/06/15 00:45:06;;;;;;;4.18;2.85;;;12.40;99.90;;;;;;4945450;28;20561;-64
2023/06/15 00:47:38;;;;;;;5.78;3.25;;;12.40;99.90;;;;;;4938500;28;20043;-63
2023/06/15 00:50:10;;;;;;;7.88;2.80;;;12.40;99.90;;;;;;4940772;28;20482;-64
2023/06/15 00:52:38;;;;;;;2.92;2.53;;;12.40;99.90;;;;;;4943778;28;20051;-64
2023/06/15 00:55:06;;;;;;;7.22;2.30;;;12.40;99.90;;;;;;4938537;28;20053;-63
2023/06/15 00:57:35;;;;;;;3.70;3.20;;;12.40;99.90;;;;;;4940429;28;20089;-64
2023/06/15 01:00:09;;;;;;;6.43;3.03;;;12.40;99.90;;;;;;4941320;28;20040;-64
2023/06/15 01:02:39;;;;;;;6.30;3.03;;;12.40;99.90;;;;;;4955195;28;20060;-63
2023/06/15 01:05:12;;;;;;;4.85;3.15;;;12.40;99.90;;;;;;4935351;28;20576;-65
2023/06/15 01:07:46;;;;;;;5.05;4.43;;;12.40;99.90;;;;;;4940221;28;20039;-63
2023/06/15 01:10:16;;;;;;;3.42;2.97;;;12.40;99.90;;;;;;4953091;28;20682;-66
2023/06/15 01:12:45;;;;;;;3.28;2.97;;;12.40;99.90;;;;;;4937734;28;20055;-64
2023/06/15 01:15:12;;;;;;;5.55;3.50;;;12.40;99.90;;;;;;4941634;28;20051;-63
2023/06/15 01:17:45;;;;;;;8.20;3.35;;;12.50;99.90;;;;;;4939117;28;20074;-63
2023/06/15 01:20:17;;;;;;;6.32;3.33;;;12.50;99.90;;;;;;4949215;28;20063;-64
2023/06/15 01:23:19;;;;;;;3.45;3.15;;;12.50;99.90;;;;;;4937153;28;20735;-64
2023/06/15 01:25:46;;;;;;;4.65;3.33;;;12.50;99.90;;;;;;4936285;28;20050;-63
2023/06/15 01:28:17;;;;;;;6.78;3.40;;;12.50;99.90;;;;;;4935252;28;20797;-69
2023/06/15 01:30:50;;;;;;;4.22;3.63;;;12.50;99.90;;;;;;4943693;28;20035;-63
2023/06/15 01:33:18;;;;;;;2.97;2.63;;;12.50;99.90;;;;;;4937904;28;20075;-67
2023/06/15 01:35:45;;;;;;;3.03;2.83;;;12.50;99.90;;;;;;4931317;28;20372;-66
2023/06/15 01:38:12;;;;;;;4.72;2.92;;;12.50;99.90;;;;;;4941552;28;20102;-65
2023/06/15 01:40:44;;;;;;;4.13;2.72;;;12.50;99.90;;;;;;4942552;28;20055;-64
2023/06/15 01:43:14;;;;;;;4.40;3.50;;;12.50;99.90;;;;;;4939066;28;20043;-65
2023/06/15 01:45:43;;;;;;;4.20;3.28;;;12.60;99.90;;;;;;4945429;28;20051;-64
2023/06/15 01:48:13;;;;;;;3.80;3.35;;;12.60;99.90;;;;;;4942165;28;20416;-64
2023/06/15 01:50:41;;;;;;;4.18;3.00;;;12.60;99.90;;;;;;4940355;28;20049;-63
2023/06/15 01:53:08;;;;;;;4.43;3.58;;;12.60;99.90;;;;;;4932842;28;20066;-65
2023/06/15 01:55:35;;;;;;;4.43;2.65;;;12.60;99.90;;;;;;4937563;28;20125;-63
2023/06/15 01:58:03;;;;;;;4.78;3.17;;;12.60;99.90;;;;;;4941209;28;20138;-64
2023/06/15 02:00:30;;;;;;;4.57;3.05;;;12.70;99.90;;;;;;4938203;28;20166;-66
2023/06/15 02:02:57;;;;;;;4.25;3.13;;;12.70;99.90;;;;;;4937161;28;20065;-63
2023/06/15 02:05:24;;;;;;;8.55;3.67;;;12.80;99.90;;;;;;4937551;28;20035;-63
2023/06/15 02:07:51;;;;;;;5.53;3.83;;;12.80;99.90;;;;;;4937329;28;20051;-66
2023/06/15 02:10:18;;;;;;;3.22;2.90;;;12.90;99.90;;;;;;4938681;28;20486;-68
2023/06/15 02:12:45;;;;;;;2.88;2.67;;;12.90;99.90;;;;;;4937027;28;20085;-64
2023/06/15 02:15:17;;;;;;;14.50;3.65;;;12.90;99.90;;;;;;4934385;28;20186;-69
2023/06/15 02:17:46;;;;;;;6.25;3.30;;;12.90;99.90;;;;;;4919802;28;20062;-63
2023/06/15 02:20:14;;;;;;;4.68;2.78;;;12.90;99.90;;;;;;4936746;28;20820;-62
2023/06/15 02:22:41;;;;;;;3.53;2.40;;;12.90;99.90;;;;;;4938878;28;20067;-66
2023/06/15 02:25:08;;;;;;;3.20;2.90;;;12.90;99.90;;;;;;4941534;28;20047;-64
2023/06/15 02:27:35;;;;;;;6.65;2.90;;;13.00;99.90;;;;;;4936458;28;20055;-63
2023/06/15 02:30:02;;;;;;;3.10;2.38;;;13.00;99.90;;;;;;4937788;28;20118;-66
2023/06/15 02:32:35;;;;;;;3.28;2.47;;;13.00;99.90;;;;;;4933102;28;20430;-68
2023/06/15 02:35:05;;;;;;;6.32;3.80;;;13.00;99.90;;;;;;4948169;28;20625;-63
2023/06/15 02:37:32;;;;;;;7.30;2.55;;;13.00;99.90;;;;;;4956359;28;20137;-63
2023/06/15 02:40:00;;;;;;;3.72;2.85;;;13.00;99.90;;;;;;4952582;28;20053;-62
2023/06/15 02:42:26;;;;;;;7.20;3.35;;;13.10;99.90;;;;;;4937100;28;20051;-68
2023/06/15 02:44:53;;;;;;;2.95;2.42;;;13.10;99.90;;;;;;4938987;28;20062;-64
2023/06/15 02:47:20;;;;;;;4.15;3.50;;;13.10;99.90;;;;;;4955030;28;20051;-62
2023/06/15 02:49:47;;;;;;;8.13;3.55;;;13.20;99.90;;;;;;4939248;28;20051;-62
2023/06/15 02:52:14;;;;;;;3.22;2.90;;;13.20;99.90;;;;;;4944587;28;20054;-64
2023/06/15 02:54:42;;;;;;;5.38;2.20;;;13.20;99.90;;;;;;4942149;28;20043;-63
2023/06/15 02:57:12;;;;;;;5.90;3.22;;;13.30;99.90;;;;;;4936969;28;20063;-64
2023/06/15 02:59:53;;;;;;;4.28;3.30;;;13.30;99.90;;;;;;4938859;28;20055;-64
2023/06/15 03:02:21;;;;;;;3.13;2.30;;;13.30;99.90;;;;;;4945920;28;20505;-62
2023/06/15 03:04:50;;;;;;;6.88;3.90;;;13.30;99.90;;;;;;4939462;28;20131;-62
2023/06/15 03:07:22;;;;;;;3.55;3.25;;;13.40;99.90;;;;;;4942347;28;20055;-64
2023/06/15 03:10:10;;;;;;;3.88;3.13;;;13.40;99.90;;;;;;4943274;28;20465;-65
2023/06/15 03:12:41;;;;;;;3.38;2.72;;;13.40;99.90;;;;;;4957015;28;20090;-62
2023/06/15 03:15:08;;;;;;;3.55;3.10;;;13.50;99.90;;;;;;4940507;28;20079;-65
2023/06/15 03:17:39;;;;;;;3.10;2.42;;;13.50;99.90;;;;;;4941345;28;20059;-67
2023/06/15 03:20:10;;;;;;;4.85;2.80;;;13.50;99.90;;;;;;4955736;28;20618;-62
2023/06/15 03:22:39;;;;;;;3.67;3.08;;;13.60;99.90;;;;;;4942530;28;20055;-64
2023/06/15 03:25:10;;;;;;;5.22;3.30;;;13.60;99.90;;;;;;4952501;28;20166;-65
2023/06/15 03:27:40;;;;;;;4.07;3.70;;;13.70;99.90;;;;;;4942434;28;20042;-63
2023/06/15 03:30:11;;;;;;;5.45;4.05;;;13.70;99.90;;;;;;4957951;28;20512;-62
2023/06/15 03:32:41;;;;;;;4.45;2.78;;;13.70;99.90;;;;;;4956908;28;20141;-64
2023/06/15 03:35:08;;;;;;;4.63;3.03;;;13.80;99.90;;;;;;4956246;28;20048;-64
2023/06/15 03:37:38;;;;;;;3.92;3.10;;;13.80;99.90;;;;;;4942223;28;20044;-64
2023/06/15 03:40:07;;;;;;;7.75;2.97;;;13.80;99.90;;;;;;4940093;28;20056;-63
2023/06/15 03:42:35;;;;;;;4.50;3.42;;;13.90;99.90;;;;;;4942476;28;20147;-64
2023/06/15 03:45:02;;;;;;;9.18;2.95;;;13.90;99.90;;;;;;4938344;28;20051;-65
2023/06/15 03:47:32;;;;;;;8.80;3.20;;;14.00;99.90;;;;;;4958292;28;20055;-67
2023/06/15 03:49:59;;;;;;;3.88;2.83;;;14.10;99.90;;;;;;4940904;28;20109;-63
2023/06/15 03:52:26;;;;;;;5.07;3.78;;;14.10;99.90;;;;;;4937935;28;20047;-65
2023/06/15 03:54:53;;;;;;;3.63;2.90;;;14.20;99.90;;;;;;4956062;28;20090;-62
2023/06/15 03:57:20;;;;;;;7.85;4.35;;;14.20;99.90;;;;;;4929403;29;20036;-62
2023/06/15 03:59:47;;;;;;;6.32;3.13;;;14.30;99.90;;;;;;4955680;28;20574;-65
2023/06/15 04:02:15;;;;;;;3.58;3.28;;;14.30;99.90;;;;;;4940024;28;20431;-63
2023/06/15 04:04:41;;;;;;;5.00;3.03;;;14.30;99.90;;;;;;4954701;28;20592;-63
2023/06/15 04:07:09;;;;;;;2.88;2.63;;;14.40;99.90;;;;;;4956851;28;20051;-63
2023/06/15 04:09:36;;;;;;;2.65;2.40;;;14.40;99.90;;;;;;4945626;28;20126;-64
2023/06/15 04:12:03;;;;;;;2.85;2.20;;;14.50;99.90;;;;;;4940840;28;20548;-63
2023/06/15 04:14:30;;;;;;;3.28;3.08;;;14.50;99.90;;;;;;4952169;28;20050;-65
2023/06/15 04:16:58;;;;;;;5.05;2.60;;;14.50;99.90;;;;;;4958755;28;20063;-64
2023/06/15 04:19:25;;;;;;;4.55;2.75;;;14.60;99.90;;;;;;4939374;28;20059;-65
2023/06/15 04:21:54;;;;;;;5.40;2.63;;;14.70;99.90;;;;;;4940256;28;20061;-63
2023/06/15 04:24:21;;;;;;;6.75;3.53;;;14.70;99.90;;;;;;4941821;28;20047;-62
2023/06/15 04:26:49;;;;;;;3.30;2.55;;;14.80;99.90;;;;;;4940341;28;20589;-63
2023/06/15 04:29:18;;;;;;;4.40;3.15;;;14.80;99.90;;;;;;4955699;28;20048;-64
2023/06/15 04:31:46;;;;;;;4.05;2.63;;;14.90;99.90;;;;;;4939060;28;20075;-66
2023/06/15 04:34:16;;;;;;;5.32;3.03;;;15.00;99.90;;;;;;4935433;28;20055;-63
2023/06/15 04:36:44;;;;;;;3.28;2.30;;;15.00;99.90;;;;;;4937281;28;20052;-62
2023/06/15 04:39:13;;;;;;;4.50;2.53;;;15.10;99.90;;;;;;4951498;28;20098;-64
2023/06/15 04:41:40;;;;;;;5.05;3.47;;;15.20;99.90;;;;;;4939881;28;20061;-64
2023/06/15 04:44:09;;;;;;;3.55;3.08;;;15.30;99.90;;;;;;4950965;28;20052;-65
2023/06/15 04:46:38;;;;;;;5.32;2.70;;;15.40;99.90;;;;;;4940743;28;20063;-64
2023/06/15 04:49:05;;;;;;;8.15;3.97;;;15.40;99.90;;;;;;4954988;28;20334;-68
2023/06/15 04:51:32;;;;;;;5.60;2.65;;;15.50;99.90;;;;;;4936592;28;20055;-66
2023/06/15 04:54:00;;;;;;;2.63;1.75;;;15.50;99.90;;;;;;4938416;28;20862;-62
2023/06/15 04:56:27;;;;;;;3.22;2.70;;;15.60;99.90;;;;;;4942677;28;20049;-68
2023/06/15 04:58:54;;;;;;;3.10;2.33;;;15.70;99.90;;;;;;4942673;28;20052;-63
2023/06/15 05:01:21;;;;;;;5.35;2.58;;;15.70;99.90;;;;;;4938418;28;20167;-63
2023/06/15 05:03:49;;;;;;;3.63;2.72;;;15.80;99.90;;;;;;4953989;28;20150;-67
2023/06/15 05:06:16;;;;;;;3.88;2.30;;;15.80;99.90;;;;;;4939987;28;20039;-63
2023/06/15 05:08:43;;;;;;;2.60;2.40;;;15.90;99.90;;;;;;4942486;28;20102;-62
2023/06/15 05:11:10;;;;;;;3.65;2.75;;;16.00;99.90;;;;;;4939260;28;20051;-63
2023/06/15 05:13:38;;;;;;;4.60;2.75;;;16.00;99.90;;;;;;4938125;28;20054;-64
2023/06/15 05:16:04;;;;;;;5.68;2.95;;;16.10;99.90;;;;;;4936400;28;20050;-63
2023/06/15 05:18:32;;;;;;;5.40;3.10;;;16.20;99.90;;;;;;4960977;28;20474;-68
2023/06/15 05:20:59;;;;;;;6.47;3.42;;;16.30;99.90;;;;;;4941608;28;20058;-64
2023/06/15 05:23:29;;;;;;;5.15;4.03;;;16.30;99.90;;;;;;4941321;28;20665;-65
2023/06/15 05:25:56;;;;;;;5.47;3.20;;;16.20;99.90;;;;;;4940604;28;20425;-66
2023/06/15 05:28:24;;;;;;;3.53;2.80;;;16.20;99.90;;;;;;4954670;28;20098;-64
2023/06/15 05:30:54;;;;;;;3.15;2.85;;;16.20;99.90;;;;;;4942257;28;20042;-62
2023/06/15 05:33:21;;;;;;;3.42;2.75;;;16.20;99.90;;;;;;4953693;28;20055;-62
2023/06/15 05:35:48;;;;;;;3.75;3.47;;;16.20;99.90;;;;;;4939015;28;20071;-64
2023/06/15 05:38:15;;;;;;;3.78;3.05;;;16.20;99.90;;;;;;4938680;28;20051;-62
2023/06/15 05:40:41;;;;;;;3.35;3.03;;;16.30;99.90;;;;;;4936865;28;20047;-66
2023/06/15 05:43:10;;;;;;;5.07;4.13;;;16.40;99.90;;;;;;4955736;28;20169;-64
2023/06/15 05:45:37;;;;;;;3.97;3.22;;;16.40;99.90;;;;;;4938107;28;20098;-63
2023/06/15 05:48:07;;;;;;;;;;;16.50;99.90;;;;;;4939475;28;20055;-68
2023/06/15 05:50:35;;;;;;;5.43;3.47;;;16.60;99.90;;;;;;4937867;28;20297;-63
2023/06/15 05:53:03;;;;;;;7.20;3.05;;;16.60;99.90;;;;;;4953888;28;20614;-67
2023/06/15 05:55:33;;;;;;;10.70;4.47;;;16.70;99.90;;;;;;4938268;28;20083;-64
2023/06/15 05:58:01;;;;;;;6.00;3.80;;;16.70;99.90;;;;;;4940105;28;20055;-65
2023/06/15 06:00:30;;;;;;;4.70;3.35;;;16.80;99.90;;;;;;4956258;28;20046;-66
2023/06/15 06:03:01;;;;;;;4.63;4.18;;;16.90;99.90;;;;;;4935353;28;20142;-62
2023/06/15 06:05:42;;;;;;;5.15;3.00;;;17.00;99.90;;;;;;4934807;28;20060;-65
2023/06/15 06:08:09;;;;;;;4.80;3.22;;;17.00;99.90;;;;;;4943810;28;20409;-66
2023/06/15 06:10:36;;;;;;;7.95;3.88;;;17.10;99.90;;;;;;4938510;28;20052;-63
2023/06/15 06:13:21;;;;;;;3.47;3.15;;;17.20;99.90;;;;;;4938111;28;20057;-68
2023/06/15 06:15:49;;;;;;;6.70;3.97;;;17.10;99.90;;;;;;4935754;28;20501;-63
2023/06/15 06:18:16;;;;;;;6.10;4.13;;;17.10;99.90;;;;;;4938473;28;20047;-64
2023/06/15 06:20:43;;;;;;;5.30;3.80;;;17.30;99.90;;;;;;4940223;28;20121;-68
2023/06/15 06:23:10;;;;;;;5.78;2.65;;;17.30;99.90;;;;;;4945221;28;20039;-64
2023/06/15 06:25:37;;;;;;;3.70;2.97;;;17.30;99.90;;;;;;4952670;28;20150;-64
2023/06/15 06:28:06;;;;;;;2.97;2.67;;;17.30;99.90;;;;;;4952408;28;20044;-62
2023/06/15 06:30:33;;;;;;;5.80;3.40;;;17.30;99.90;;;;;;4942646;28;20067;-63
2023/06/15 06:33:02;;;;;;;4.57;3.03;;;17.40;99.90;;;;;;4943292;28;20435;-64
2023/06/15 06:35:29;;;;;;;3.35;2.85;;;17.50;99.90;;;;;;4939917;28;20044;-62
2023/06/15 06:37:56;;;;;;;3.20;2.85;;;17.50;99.90;;;;;;4944815;28;20858;-62
2023/06/15 06:40:25;;;;;;;6.90;3.10;;;17.50;99.90;;;;;;4940312;28;20142;-62
2023/06/15 06:42:52;;;;;;;4.37;3.67;;;17.50;99.90;;;;;;4956443;28;20481;-63
2023/06/15 06:45:19;;;;;;;5.75;3.00;;;17.50;99.90;;;;;;4941738;28;20123;-63
2023/06/15 06:47:46;;;;;;;2.95;2.53;;;17.40;99.90;;;;;;4943594;28;20083;-63
2023/06/15 06:50:13;;;;;;;5.40;3.28;;;17.40;99.90;;;;;;4941294;28;20071;-65
2023/06/15 06:52:42;;;;;;;2.72;2.53;;;17.50;99.90;;;;;;4941955;28;20071;-63
2023/06/15 06:55:09;;;;;;;5.57;3.45;;;17.50;99.90;;;;;;4946192;28;20162;-66
2023/06/15 06:57:36;;;;;;;4.20;3.80;;;17.50;99.90;;;;;;4945714;28;20055;-64
2023/06/15 07:00:04;;;;;;;4.50;2.60;;;17.50;99.90;;;;;;4942193;28;20105;-63
2023/06/15 07:02:32;;;;;;;3.60;3.30;;;17.60;99.90;;;;;;4945564;28;20066;-70
2023/06/15 07:04:59;;;;;;;4.40;3.33;;;17.60;99.90;;;;;;4942691;28;20510;-66
2023/06/15 07:07:26;;;;;;;6.68;3.80;;;17.70;99.90;;;;;;4942333;28;20055;-63
2023/06/15 07:09:53;;;;;;;5.25;3.65;;;17.80;99.90;;;;;;4939240;28;20040;-65
2023/06/15 07:12:20;;;;;;;5.93;3.25;;;17.90;99.90;;;;;;4943514;28;20564;-65
2023/06/15 07:14:47;;;;;;;4.78;3.22;;;18.00;99.90;;;;;;4938501;28;20098;-64
2023/06/15 07:17:14;;;;;;;4.30;3.10;;;18.00;99.90;;;;;;4944770;28;20035;-65
2023/06/15 07:19:41;;;;;;;3.42;2.83;;;18.10;99.90;;;;;;4945032;28;20102;-66
2023/06/15 07:22:08;;;;;;;3.67;3.38;;;18.20;99.90;;;;;;4943696;28;20520;-63
2023/06/15 07:24:36;;;;;;;3.72;2.90;;;18.30;99.90;;;;;;4936987;28;20078;-70
2023/06/15 07:27:03;;;;;;;3.85;2.53;;;18.40;99.90;;;;;;4944056;28;20687;-62
2023/06/15 07:29:30;;;;;;;2.78;2.58;;;18.50;99.90;;;;;;4939836;28;20086;-64
2023/06/15 07:31:57;;;;;;;3.50;2.30;;;18.50;99.90;;;;;;4943995;28;20047;-66
2023/06/15 07:34:24;;;;;;;6.00;2.75;;;18.60;99.90;;;;;;4939796;28;20051;-62
2023/06/15 07:36:51;;;;;;;3.78;3.47;;;18.60;99.90;;;;;;4945993;28;20043;-64
2023/06/15 07:39:18;;;;;;;2.88;2.40;;;18.70;99.90;;;;;;4939223;28;20044;-66
2023/06/15 07:41:45;;;;;;;3.65;3.28;;;18.70;99.90;;;;;;4935086;28;20071;-65
2023/06/15 07:44:14;;;;;;;4.38;3.45;;;18.80;99.90;;;;;;4940877;28;20047;-63
2023/06/15 07:46:41;;;;;;;3.78;3.10;;;18.80;99.90;;;;;;4941536;28;20039;-66
2023/06/15 07:49:08;;;;;;;4.35;3.95;;;18.90;99.90;;;;;;4937619;28;20067;-63
2023/06/15 07:51:35;;;;;;;3.13;2.55;;;19.00;99.90;;;;;;4943833;28;20512;-64
2023/06/15 07:54:13;;;;;;;3.65;3.08;;;19.10;99.90;;;;;;4947376;28;20059;-66
2023/06/15 07:56:42;;;;;;;5.45;2.95;;;19.20;99.90;;;;;;4944166;28;20149;-63
2023/06/15 07:59:09;;;;;;;3.70;2.50;;;19.30;99.90;;;;;;4942537;28;20122;-66
2023/06/15 08:01:36;;;;;;;8.45;4.10;;;19.40;99.90;;;;;;4942459;28;20054;-71
2023/06/15 08:04:03;;;;;;;2.78;2.58;;;19.50;99.90;;;;;;4939571;28;20134;-63
2023/06/15 08:06:30;;;;;;;5.55;2.05;;;19.60;99.90;;;;;;4939545;28;20058;-63
2023/06/15 08:08:57;;;;;;;6.40;3.83;;;19.70;99.10;;;;;;4940455;28;20055;-68
2023/06/15 08:11:24;;;;;;;3.35;2.55;;;19.80;99.30;;;;;;4940437;28;20047;-63
2023/06/15 08:13:51;;;;;;;4.65;2.40;;;19.90;98.90;;;;;;4941668;28;20051;-64
2023/06/15 08:16:18;;;;;;;3.67;2.95;;;19.90;99.20;;;;;;4942570;28;20532;-68
2023/06/15 08:18:44;;;;;;;6.18;3.67;;;20.00;99.90;;;;;;4944460;28;20039;-63
2023/06/15 08:21:12;;;;;;;10.05;2.70;;;20.00;99.90;;;;;;4939665;28;20074;-66
2023/06/15 08:23:39;;;;;;;3.60;2.47;;;20.10;99.90;;;;;;4938212;28;20047;-66
2023/06/15 08:26:06;;;;;;;2.90;2.60;;;20.00;99.90;;;;;;4944396;28;20051;-63
2023/06/15 08:28:33;;;;;;;2.75;2.55;;;20.00;99.20;;;;;;4944583;28;20044;-64
2023/06/15 08:31:19;;;;;;;3.58;2.20;;;20.10;98.90;;;;;;4940215;28;20101;-65
2023/06/15 08:33:46;;;;;;;4.55;2.30;;;20.20;98.00;;;;;;4943234;28;20047;-63
2023/06/15 08:36:13;;;;;;;3.75;2.97;;;20.30;96.60;;;;;;4943905;28;20923;-65
2023/06/15 08:38:40;;;;;;;3.90;2.63;;;20.40;94.80;;;;;;4937733;28;20133;-65
2023/06/15 08:41:07;;;;;;;6.13;2.30;;;20.40;92.60;;;;;;4937647;28;20039;-63
2023/06/15 08:43:35;;;;;;;4.90;2.03;;;20.40;91.10;;;;;;4939560;28;20043;-63
2023/06/15 08:46:03;;;;;;;2.25;2.05;;;20.40;89.70;;;;;;4942454;28;20102;-66
2023/06/15 08:48:33;;;;;;;3.28;2.25;;;20.40;88.50;;;;;;4957389;28;20043;-64
2023/06/15 08:51:00;;;;;;;4.90;2.20;;;20.40;87.90;;;;;;4941007;28;20071;-67
2023/06/15 08:53:29;;;;;;;5.38;2.45;;;20.50;90.00;;;;;;4941025;28;20871;-62
2023/06/15 08:55:56;;;;;;;13.25;3.40;;;20.50;89.70;;;;;;4941410;28;20055;-64
2023/06/15 08:58:22;;;;;;;3.92;2.67;;;20.60;90.10;;;;;;4943621;28;20039;-67
2023/06/15 09:00:51;;;;;;;3.67;2.58;;;20.60;89.40;;;;;;4941216;28;20097;-64
2023/06/15 09:03:19;;;;;;;4.32;3.85;;;20.70;89.10;;;;;;4946577;28;20062;-64
2023/06/15 09:05:45;;;;;;;2.17;1.98;;;20.70;89.00;;;;;;4943068;28;20043;-66
2023/06/15 09:08:13;;;;;;;3.38;2.00;;;20.70;87.20;;;;;;4938119;28;20063;-64
2023/06/15 09:10:41;;;;;;;3.30;2.10;;;20.80;88.40;;;;;;4946792;28;20090;-63
2023/06/15 09:13:17;;;;;;;2.90;2.50;;;20.80;88.20;;;;;;4943542;28;20125;-63
2023/06/15 09:15:50;;;;;;;2.20;1.90;;;20.90;87.70;;;;;;4942161;28;20740;-64
2023/06/15 09:18:17;;;;;;;3.35;2.53;;;20.90;87.60;;;;;;4943853;28;20138;-66
2023/06/15 09:20:44;;;;;;;4.88;2.33;;;21.00;87.60;;;;;;4940360;28;20091;-62
2023/06/15 09:23:12;;;;;;;2.40;2.03;;;21.10;85.90;;;;;;4945782;28;20043;-66
2023/06/15 09:25:51;;;;;;;3.47;2.30;;;21.20;83.30;;;;;;4946443;28;20432;-65
2023/06/15 09:28:22;;;;;;;4.30;2.35;;;21.30;82.40;;;;;;4940778;28;20150;-65
2023/06/15 09:30:55;;;;;;;2.22;2.03;;;21.40;83.40;;;;;;4942582;28;20047;-68
2023/06/15 09:33:23;;;;;;;2.95;2.35;;;21.50;84.20;;;;;;4943074;28;20075;-62
2023/06/15 09:35:59;;;;;;;2.67;2.30;;;21.50;88.70;;;;;;4941446;28;20586;-63
2023/06/15 09:38:40;;;;;;;4.35;2.28;;;21.30;86.70;;;;;;4943458;28;20045;-65
2023/06/15 09:41:08;;;;;;;2.75;2.40;;;21.20;86.80;;;;;;4936373;28;20055;-63
2023/06/15 09:43:41;;;;;;;2.65;2.30;;;21.30;86.50;;;;;;4938462;28;20055;-65
2023/06/15 09:46:12;;;;;;;3.22;2.92;;;21.40;86.60;;;;;;4938760;28;20119;-69
2023/06/15 09:48:40;;;;;;;3.90;2.33;;;21.40;84.70;;;;;;4942159;28;20567;-65
2023/06/15 09:51:07;;;;;;;3.92;3.53;;;21.50;83.90;;;;;;4927298;28;20897;-67
2023/06/15 09:53:34;;;;;;;14.40;3.13;;;21.60;83.40;;;;;;4939600;28;20043;-62
2023/06/15 09:56:01;;;;;;;3.50;2.80;;;21.70;84.20;;;;;;4941597;28;20099;-68
2023/06/15 09:58:40;;;;;;;5.05;2.50;;;21.90;84.70;;;;;;4937422;28;20115;-64
2023/06/15 10:01:10;;;;;;;5.60;3.17;;;21.90;84.50;;;;;;4939416;28;20051;-63
2023/06/15 10:03:39;;;;;;;2.97;2.75;;;21.90;86.00;;;;;;4942053;28;20398;-63
2023/06/15 10:06:11;;;;;;;7.00;3.38;;;22.00;86.20;;;;;;4943222;28;20134;-68
2023/06/15 10:08:40;;;;;;;3.78;2.67;;;22.00;85.20;;;;;;4939741;28;20113;-64
2023/06/15 10:11:09;;;;;;;2.45;2.25;;;21.90;84.20;;;;;;4942432;28;20047;-65
2023/06/15 10:13:57;;;;;;;3.10;2.90;;;22.10;83.70;;;;;;4937209;28;20057;-63
2023/06/15 10:16:26;;;;;;;4.18;2.83;;;22.10;81.90;;;;;;4933683;28;20082;-63
2023/06/15 10:19:01;;;;;;;5.68;2.83;;;22.10;82.60;;;;;;4940341;28;20067;-65
2023/06/15 10:21:32;;;;;;;4.53;2.80;;;22.20;84.20;;;;;;4940155;28;20051;-63
2023/06/15 10:24:01;;;;;;;;;;;22.30;82.90;;;;;;4940090;28;20055;-64
2023/06/15 10:26:29;;;;;;;6.45;3.38;;;22.30;82.70;;;;;;4939257;28;20808;-65
2023/06/15 10:29:03;;;;;;;5.03;3.20;;;22.20;83.10;;;;;;4942893;28;20051;-64
2023/06/15 10:31:51;;;;;;;2.85;2.63;;;22.20;83.70;;;;;;4941799;28;20051;-63
2023/06/15 10:34:34;;;;;;;8.70;3.53;;;22.20;82.10;;;;;;4940695;28;20130;-68
2023/06/15 10:37:16;;;;;;;4.07;3.03;;;22.20;80.90;;;;;;4921040;28;20052;-66
2023/06/15 10:39:44;;;;;;;7.80;2.55;;;22.30;82.40;;;;;;4940460;28;20047;-67
2023/06/15 10:42:15;;;;;;;3.30;3.00;;;22.30;83.50;;;;;;4937061;28;20046;-66
2023/06/15 10:44:41;;;;;;;2.60;2.40;;;22.40;82.60;;;;;;4938735;28;20075;-65
2023/06/15 10:47:11;;;;;;;6.82;2.55;;;22.50;83.00;;;;;;4941779;28;20608;-65
2023/06/15 10:49:48;;;;;;;4.07;3.73;;;22.50;82.80;;;;;;4943547;28;20371;-66
2023/06/15 10:52:16;;;;;;;3.70;3.17;;;22.60;81.40;;;;;;4938065;28;20081;-65
2023/06/15 10:54:44;;;;;;;3.50;3.20;;;22.60;81.90;;;;;;4947003;28;20051;-65
2023/06/15 10:57:17;;;;;;;2.90;2.60;;;22.60;82.00;;;;;;4940710;28;20047;-63
2023/06/15 10:59:56;;;;;;;2.58;2.35;;;22.60;82.50;;;;;;4938688;28;20389;-65
2023/06/15 11:02:26;;;;;;;7.40;3.15;;;22.80;81.60;;;;;;4940947;28;20070;-66
2023/06/15 11:05:08;;;;;;;;;;;22.90;82.90;;;;;;4936824;28;20054;-64
2023/06/15 11:07:38;;;;;;;3.38;3.00;;;22.80;82.40;;;;;;4939124;28;20519;-66
2023/06/15 11:10:15;;;;;;;4.25;3.60;;;22.80;85.10;;;;;;4942740;28;20047;-65
2023/06/15 11:12:44;;;;;;;4.55;3.25;;;22.80;86.60;;;;;;4943628;28;20128;-67
2023/06/15 11:15:14;;;;;;;2.88;2.67;;;22.60;89.00;;;;;;4936619;28;20095;-64
2023/06/15 11:17:59;;;;;;;6.07;3.83;;;22.40;87.20;;;;;;4937148;28;20733;-65
2023/06/15 11:20:38;;;;;;;7.60;4.47;;;22.40;86.50;;;;;;4940296;28;20113;-64
2023/06/15 11:23:19;;;;;;;5.93;3.22;;;22.40;87.80;;;;;;4946493;28;20050;-64
2023/06/15 11:25:51;;;;;;;4.80;3.00;;;22.50;88.20;;;;;;4944549;28;20194;-65
2023/06/15 11:28:24;;;;;;;4.90;3.03;;;22.70;86.90;;;;;;4943050;28;20134;-65
2023/06/15 11:31:04;;;;;;;5.13;3.70;;;22.90;86.80;;;;;;4939633;28;20050;-64
2023/06/15 11:33:36;;;;;;;3.85;3.55;;;22.90;85.10;;;;;;4939371;28;20126;-67
2023/06/15 11:36:08;;;;;;;5.57;2.97;;;22.90;84.50;;;;;;4941962;28;21042;-69
2023/06/15 11:38:36;;;;;;;5.45;3.60;;;22.90;85.10;;;;;;4942158;28;20079;-64
2023/06/15 11:41:09;;;;;;;9.35;3.10;;;23.00;83.10;;;;;;4943284;28;20078;-65
2023/06/15 11:43:50;;;;;;;3.33;2.67;;;23.10;83.30;;;;;;4937151;28;20133;-64
2023/06/15 11:46:22;;;;;;;4.30;3.58;;;23.10;82.50;;;;;;4940949;28;20058;-65
2023/06/15 11:48:54;;;;;;;2.90;2.65;;;23.10;83.30;;;;;;4940328;28;20043;-66
2023/06/15 11:51:22;;;;;;;3.17;2.78;;;23.30;82.50;;;;;;4939822;28;20039;-66
2023/06/15 11:53:53;;;;;;;7.45;3.50;;;23.30;83.60;;;;;;4939857;28;20075;-64
2023/06/15 11:56:20;;;;;;;4.65;3.38;;;23.40;82.90;;;;;;4944600;28;20040;-66
2023/06/15 11:58:48;;;;;;;3.47;2.75;;;23.30;84.50;;;;;;4943818;28;20047;-66
2023/06/15 12:01:16;;;;;;;3.30;3.00;;;23.30;84.40;;;;;;4943276;28;20043;-64
2023/06/15 12:03:43;;;;;;;5.78;3.03;;;23.40;85.10;;;;;;4944609;28;20059;-67
2023/06/15 12:06:30;;;;;;;4.20;3.38;;;23.40;85.80;;;;;;4938539;28;20058;-68
2023/06/15 12:08:57;;;;;;;4.88;2.65;;;23.40;85.20;;;;;;4943656;28;20051;-64
2023/06/15 12:11:27;;;;;;;4.85;3.20;;;23.30;86.20;;;;;;4934784;28;20610;-66
2023/06/15 12:14:11;;;;;;;4.38;3.00;;;23.30;86.90;;;;;;4946954;28;20047;-64
2023/06/15 12:16:39;;;;;;;3.17;2.88;;;23.20;86.00;;;;;;4941848;28;20050;-66
2023/06/15 12:19:09;;;;;;;4.63;2.70;;;23.10;88.30;;;;;;4943913;28;20048;-65
2023/06/15 12:21:37;;;;;;;;;;;23.00;89.60;;;;;;4942656;28;20070;-65
2023/06/15 12:24:18;;;;;;;3.85;3.28;;;23.00;90.60;;;;;;4940462;28;19926;-64
2023/06/15 12:27:00;;;;;;;7.70;3.60;;;22.70;90.70;;;;;;4936891;28;20149;-64
2023/06/15 12:29:27;;;;;;;6.72;3.30;;;22.70;91.40;;;;;;4937408;28;20114;-65
2023/06/15 12:31:55;;;;;;;3.58;3.28;;;22.70;91.60;;;;;;4940156;28;20078;-65
2023/06/15 12:34:24;;;;;;;4.60;3.58;;;22.50;91.90;;;;;;4940579;28;20080;-66
2023/06/15 12:36:53;;;;;;;6.65;4.15;;;22.50;92.30;;;;;;4940253;28;20755;-65
2023/06/15 12:39:26;;;;;;;4.20;3.83;;;22.50;91.90;;;;;;4940687;28;20050;-64
2023/06/15 12:42:01;;;;;;;3.55;3.20;;;22.50;92.60;;;;;;4941064;28;20051;-64
2023/06/15 12:44:29;;;;;;;3.70;3.38;;;22.50;92.60;;;;;;4943326;28;20668;-66
2023/06/15 12:46:56;;;;;;;4.20;3.80;;;22.50;92.30;;;;;;4942949;28;20047;-65
2023/06/15 12:49:23;;;;;;;4.53;3.50;;;22.60;92.10;;;;;;4942416;28;20047;-66
2023/06/15 12:51:50;;;;;;;3.42;3.13;;;22.70;92.00;;;;;;4944940;28;20183;-66
2023/06/15 12:54:21;;;;;;;5.28;3.30;;;22.70;92.00;;;;;;4947419;28;20101;-64
2023/06/15 12:56:48;;;;;;;4.47;3.85;;;22.60;92.20;;;;;;4940134;28;20031;-65
2023/06/15 12:59:15;;;;;;;4.47;3.72;;;22.60;92.50;;;;;;4944200;28;20142;-65